Terminal Aerodrome Forecast
Issued by NWS

Home | Current Version | Previous Version | Text Only | Print | Product List | Glossary On
Versions: 1 2 3 4 5 6 7 8 9 10 11 12
000
FTPA31 PHFO 252331 AAA
TAFHJR
TAF AMD
PHJR 252331Z 2600/2624 06009G16KT P6SM FEW035 SCT060
     FM260400 04006KT P6SM FEW030 SCT060
     FM262000 05013G22KT P6SM FEW035 SCT060=

USA.gov is the U.S. government's official web portal to all federal, state and local government web resources and services.